Latest Weather Observations for Outer Harbor (Black Pole)

IDS60801

Issued at 1:33 am CST Wednesday 27 July 2016 (issued every 30 minutes, with the page automatically refreshed every 10 minutes)

About weather observations | Map of weather stations | Latest weather observations for SA | Other Formats
Station Details ID: 023052 Name: BLACK POLE Lat: -34.73 Lon: 138.47 Height: 6.27 m
Data from the previous 72 hours. | See also: Recent months for locations in South Australia
Date/Time
CST
Temp
°C
App
Temp
°C
Dew
Point
°C
Rel
Hum
%
Delta-T
°C
Wind Press
QNH
hPa
Press
MSL
hPa
Rain since
9am
mm
Dir  Spd
km/h
Gust
km/h
Spd
kts
Gust
kts
27/01:30am - - - - - W 30 35 16 19 - - -
27/01:00am - - - - - WSW 30 37 16 20 - - -
27/12:30am - - - - - WSW 33 43 18 23 - - -
27/12:00am - - - - - WSW 41 54 22 29 - - -
 
Date/Time
CST
Temp
°C
App
Temp
°C
Dew
Point
°C
Rel
Hum
%
Delta-T
°C
Wind Press
QNH
hPa
Press
MSL
hPa
Rain since
9am
mm
Dir  Spd
km/h
Gust
km/h
Spd
kts
Gust
kts
26/11:55pm - - - - - WSW 33 54 18 29 - - -
26/11:30pm - - - - - WSW 33 43 18 23 - - -
26/11:00pm - - - - - W 30 39 16 21 - - -
26/10:30pm - - - - - WSW 32 41 17 22 - - -
26/10:00pm - - - - - WSW 28 35 15 19 - - -
26/09:30pm - - - - - W 39 50 21 27 - - -
26/09:00pm - - - - - W 30 37 16 20 - - -
26/08:30pm - - - - - W 33 43 18 23 - - -
26/08:00pm - - - - - W 37 46 20 25 - - -
26/07:30pm - - - - - W 37 44 20 24 - - -
26/07:00pm - - - - - W 44 54 24 29 - - -
26/06:30pm - - - - - W 52 67 28 36 - - -
26/06:00pm - - - - - WNW 59 78 32 42 - - -
26/05:36pm - - - - - NW 52 72 28 39 - - -
26/05:30pm - - - - - NW 54 63 29 34 - - -
26/05:00pm - - - - - NW 50 63 27 34 - - -
26/04:30pm - - - - - NW 43 54 23 29 - - -
26/04:00pm - - - - - NW 44 56 24 30 - - -
26/03:30pm - - - - - NW 44 54 24 29 - - -
26/03:00pm - - - - - NW 44 57 24 31 - - -
26/02:30pm - - - - - NNW 39 46 21 25 - - -
26/02:00pm - - - - - NW 37 44 20 24 - - -
26/01:30pm - - - - - NW 43 57 23 31 - - -
26/01:00pm - - - - - NW 39 46 21 25 - - -
26/12:30pm - - - - - NNW 37 46 20 25 - - -
26/12:00pm - - - - - NNW 33 41 18 22 - - -
26/11:30am - - - - - NNW 35 43 19 23 - - -
26/11:00am - - - - - NW 35 43 19 23 - - -
26/10:30am - - - - - NW 35 43 19 23 - - -
26/10:00am - - - - - NNW 24 30 13 16 - - -
26/09:30am - - - - - NNW 26 32 14 17 - - -
26/09:00am - - - - - NW 30 39 16 21 - - -
26/08:30am - - - - - WNW 32 37 17 20 - - -
26/08:00am - - - - - WNW 24 30 13 16 - - -
26/07:30am - - - - - WNW 22 26 12 14 - - -
26/07:00am - - - - - W 24 32 13 17 - - -
26/06:30am - - - - - W 26 32 14 17 - - -
26/06:00am - - - - - W 30 35 16 19 - - -
26/05:30am - - - - - W 28 35 15 19 - - -
26/05:00am - - - - - W 33 39 18 21 - - -
26/04:30am - - - - - W 30 33 16 18 - - -
26/04:00am - - - - - W 32 39 17 21 - - -
26/03:30am - - - - - W 30 35 16 19 - - -
26/03:00am - - - - - WSW 30 35 16 19 - - -
26/02:30am - - - - - W 35 41 19 22 - - -
26/02:00am - - - - - W 33 41 18 22 - - -
26/01:30am - - - - - W 32 39 17 21 - - -
26/01:00am - - - - - W 32 35 17 19 - - -
26/12:30am - - - - - W 33 39 18 21 - - -
26/12:00am - - - - - W 30 35 16 19 - - -
 
Date/Time
CST
Temp
°C
App
Temp
°C
Dew
Point
°C
Rel
Hum
%
Delta-T
°C
Wind Press
QNH
hPa
Press
MSL
hPa
Rain since
9am
mm
Dir  Spd
km/h
Gust
km/h
Spd
kts
Gust
kts
25/11:30pm - - - - - WSW 28 32 15 17 - - -
25/11:00pm - - - - - WSW 35 46 19 25 - - -
25/10:30pm - - - - - W 39 48 21 26 - - -
25/10:00pm - - - - - WSW 39 52 21 28 - - -
25/09:30pm - - - - - WSW 39 44 21 24 - - -
25/09:00pm - - - - - WSW 41 50 22 27 - - -
25/08:30pm - - - - - WSW 41 48 22 26 - - -
25/08:00pm - - - - - WSW 35 43 19 23 - - -
25/07:30pm - - - - - WSW 35 48 19 26 - - -
25/07:00pm - - - - - W 35 44 19 24 - - -
25/06:30pm - - - - - W 33 43 18 23 - - -
25/06:00pm - - - - - WSW 33 43 18 23 - - -
25/05:30pm - - - - - WSW 37 48 20 26 - - -
25/05:06pm - - - - - WSW 35 56 19 30 - - -
25/05:00pm - - - - - WSW 33 41 18 22 - - -
25/04:30pm - - - - - WSW 37 46 20 25 - - -
25/04:00pm - - - - - W 50 61 27 33 - - -
25/03:33pm - - - - - W 44 63 24 34 - - -
25/03:30pm - - - - - W 44 63 24 34 - - -
25/03:25pm - - - - - WNW 43 56 23 30 - - -
25/03:00pm - - - - - NW 44 54 24 29 - - -
25/02:30pm - - - - - NW 44 59 24 32 - - -
25/02:00pm - - - - - NW 43 50 23 27 - - -
25/01:30pm - - - - - NW 44 54 24 29 - - -
25/01:00pm - - - - - NW 46 59 25 32 - - -
25/12:30pm - - - - - NW 41 52 22 28 - - -
25/12:00pm - - - - - NW 37 44 20 24 - - -
25/11:30am - - - - - NNW 35 41 19 22 - - -
25/11:00am - - - - - NNW 39 48 21 26 - - -
25/10:30am - - - - - NNW 37 44 20 24 - - -
25/10:00am - - - - - NW 39 48 21 26 - - -
25/09:30am - - - - - NW 37 46 20 25 - - -
25/09:00am - - - - - NW 39 48 21 26 - - -
25/08:30am - - - - - NW 37 44 20 24 - - -
25/08:00am - - - - - NW 39 46 21 25 - - -
25/07:30am - - - - - NW 37 43 20 23 - - -
25/07:00am - - - - - WNW 35 43 19 23 - - -
25/06:30am - - - - - WNW 35 43 19 23 - - -
25/06:00am - - - - - WNW 28 33 15 18 - - -
25/05:30am - - - - - WNW 26 32 14 17 - - -
25/05:00am - - - - - W 28 32 15 17 - - -
25/04:30am - - - - - W 32 39 17 21 - - -
25/04:00am - - - - - W 32 39 17 21 - - -
25/03:30am - - - - - WSW 33 41 18 22 - - -
25/03:00am - - - - - WSW 37 46 20 25 - - -
25/02:30am - - - - - WSW 30 37 16 20 - - -
25/02:00am - - - - - WSW 33 41 18 22 - - -
25/01:30am - - - - - WSW 37 44 20 24 - - -
25/01:00am - - - - - WSW 41 50 22 27 - - -
25/12:30am - - - - - WSW 43 54 23 29 - - -
25/12:00am - - - - - WSW 46 56 25 30 - - -
 
Date/Time
CST
Temp
°C
App
Temp
°C
Dew
Point
°C
Rel
Hum
%
Delta-T
°C
Wind Press
QNH
hPa
Press
MSL
hPa
Rain since
9am
mm
Dir  Spd
km/h
Gust
km/h
Spd
kts
Gust
kts
24/11:30pm - - - - - WSW 46 57 25 31 - - -
24/11:00pm - - - - - W 44 56 24 30 - - -
24/10:30pm - - - - - W 44 56 24 30 - - -
24/10:00pm - - - - - W 46 61 25 33 - - -
24/09:30pm - - - - - W 48 63 26 34 - - -
24/09:00pm - - - - - W 46 63 25 34 - - -
24/08:34pm - - - - - W 46 65 25 35 - - -
24/08:30pm - - - - - W 48 63 26 34 - - -
24/08:00pm - - - - - W 52 70 28 38 - - -
24/07:47pm - - - - - W 46 69 25 37 - - -
24/07:30pm - - - - - W 48 61 26 33 - - -
24/07:04pm - - - - - W 52 72 28 39 - - -
24/07:00pm - - - - - W 52 67 28 36 - - -
24/06:30pm - - - - - W 57 74 31 40 - - -
24/06:10pm - - - - - W 54 76 29 41 - - -
24/06:00pm - - - - - W 56 74 30 40 - - -
24/05:30pm - - - - - W 54 65 29 35 - - -
24/05:10pm - - - - - W 52 72 28 39 - - -
24/05:00pm - - - - - W 56 70 30 38 - - -
24/04:30pm - - - - - WNW 54 69 29 37 - - -
24/04:00pm - - - - - W 54 67 29 36 - - -
24/03:30pm - - - - - W 52 67 28 36 - - -
24/03:17pm - - - - - W 50 70 27 38 - - -
24/03:00pm - - - - - WNW 48 57 26 31 - - -
24/02:30pm - - - - - W 44 56 24 30 - - -
24/02:04pm - - - - - WNW 52 74 28 40 - - -
24/02:00pm - - - - - WNW 48 61 26 33 - - -
24/01:30pm - - - - - W 52 65 28 35 - - -
24/01:00pm - - - - - W 56 70 30 38 - - -
24/12:30pm - - - - - WNW 48 57 26 31 - - -
24/12:00pm - - - - - WNW 48 69 26 37 - - -
24/11:59am - - - - - WNW 46 69 25 37 - - -
24/11:30am - - - - - NW 39 50 21 27 - - -
24/11:00am - - - - - WNW 35 43 19 23 - - -
24/10:30am - - - - - WNW 48 61 26 33 - - -
24/10:00am - - - - - WNW 59 80 32 43 - - -
24/09:41am - - - - - NW 54 78 29 42 - - -
24/09:30am - - - - - NW 52 69 28 37 - - -
24/09:18am - - - - - NW 48 70 26 38 - - -
24/09:00am - - - - - NNW 41 48 22 26 - - -
24/08:30am - - - - - NNW 37 44 20 24 - - -
24/08:00am - - - - - NNW 41 46 22 25 - - -
24/07:30am - - - - - N 37 46 20 25 - - -
24/07:00am - - - - - N 33 44 18 24 - - -
24/06:30am - - - - - N 30 37 16 20 - - -
24/06:00am - - - - - N 30 35 16 19 - - -
24/05:30am - - - - - N 28 37 15 20 - - -
24/05:00am - - - - - N 28 33 15 18 - - -
24/04:30am - - - - - N 26 32 14 17 - - -
24/04:00am - - - - - NNE 26 33 14 18 - - -
24/03:30am - - - - - N 24 30 13 16 - - -
24/03:00am - - - - - N 24 30 13 16 - - -
24/02:30am - - - - - N 24 28 13 15 - - -
24/02:00am - - - - - N 24 30 13 16 - - -

Other Formats:

Comma delimited format used in spreadsheet applications
http://www.bom.gov.au/fwo/IDS60801/IDS60801.95675.axf

JavaScript Object Notation format (JSON) in row-major order
http://www.bom.gov.au/fwo/IDS60801/IDS60801.95675.json